Time;durP1;ratioP1;P1;durP2;ratioP2;P2;SDS_P1;SDS_P2;PMS_P1;PMS_P2;Temp;Humidity;BMP_temperature;BMP_pressure;BME280_temperature;BME280_humidity;BME280_pressure;Samples;Min_cycle;Max_cycle;Signal;HPM_P1;HPM_P2
2024/02/22 00:00:03;;;;;;;3.15;2.53;;;;;;;;;;2056537;28;20038;-47
2024/02/22 00:01:07;;;;;;;3.80;2.45;;;;;;;;;;2055671;28;20011;-49
2024/02/22 00:02:09;;;;;;;3.65;2.20;;;;;;;;;;2049409;28;20031;-49
2024/02/22 00:03:10;;;;;;;4.15;2.20;;;;;;;;;;2056105;28;20015;-50
2024/02/22 00:04:12;;;;;;;4.35;2.78;;;;;;;;;;2056467;28;20110;-49
2024/02/22 00:05:13;;;;;;;3.78;2.60;;;;;;;;;;2056408;28;20050;-49
2024/02/22 00:06:15;;;;;;;4.35;2.78;;;;;;;;;;2062106;28;20544;-47
2024/02/22 00:07:16;;;;;;;3.60;2.47;;;;;;;;;;2056802;28;20031;-49
2024/02/22 00:08:17;;;;;;;5.57;2.88;;;;;;;;;;2056678;28;20019;-49
2024/02/22 00:09:18;;;;;;;4.63;2.33;;;;;;;;;;2056752;28;20022;-49
2024/02/22 00:10:20;;;;;;;3.63;2.53;;;;;;;;;;2048922;28;20027;-49
2024/02/22 00:11:21;;;;;;;4.78;2.80;;;;;;;;;;2051992;28;20081;-49
2024/02/22 00:12:22;;;;;;;5.07;2.28;;;;;;;;;;2056273;28;20038;-50
2024/02/22 00:13:24;;;;;;;4.30;2.65;;;;;;;;;;2056412;28;20027;-46
2024/02/22 00:14:27;;;;;;;2.75;2.15;;;;;;;;;;2055271;28;20037;-45
2024/02/22 00:15:30;;;;;;;4.07;2.17;;;;;;;;;;2053879;28;20030;-46
2024/02/22 00:16:32;;;;;;;5.10;2.50;;;;;;;;;;2056557;28;20064;-46
2024/02/22 00:17:33;;;;;;;3.35;2.30;;;;;;;;;;2056680;28;20026;-49
2024/02/22 00:18:35;;;;;;;3.72;2.42;;;;;;;;;;2056704;28;20102;-48
2024/02/22 00:19:36;;;;;;;3.53;2.05;;;;;;;;;;2056427;28;20018;-46
2024/02/22 00:20:37;;;;;;;3.90;2.58;;;;;;;;;;2056842;28;20033;-46
2024/02/22 00:21:39;;;;;;;4.00;2.78;;;;;;;;;;2055868;28;20094;-47
2024/02/22 00:22:40;;;;;;;3.35;2.58;;;;;;;;;;2056004;28;20107;-45
2024/02/22 00:23:42;;;;;;;3.95;2.60;;;;;;;;;;2056786;28;20031;-47
2024/02/22 00:24:44;;;;;;;5.93;2.60;;;;;;;;;;2056703;28;20023;-45
2024/02/22 00:25:45;;;;;;;4.38;2.72;;;;;;;;;;2055367;28;20021;-47
2024/02/22 00:26:46;;;;;;;3.85;2.47;;;;;;;;;;2051737;28;20458;-47
2024/02/22 00:27:48;;;;;;;6.38;2.78;;;;;;;;;;2056788;28;20015;-46
2024/02/22 00:28:49;;;;;;;5.32;2.67;;;;;;;;;;2056807;28;20493;-48
2024/02/22 00:29:50;;;;;;;4.43;2.67;;;;;;;;;;2056983;28;20022;-47
2024/02/22 00:30:52;;;;;;;4.00;2.80;;;;;;;;;;2053594;28;20058;-47
2024/02/22 00:31:53;;;;;;;4.38;3.03;;;;;;;;;;2056983;28;20061;-45
2024/02/22 00:32:55;;;;;;;5.15;2.78;;;;;;;;;;2057024;28;20195;-48
2024/02/22 00:33:56;;;;;;;3.50;2.50;;;;;;;;;;2056772;28;20140;-46
2024/02/22 00:34:57;;;;;;;4.32;2.38;;;;;;;;;;2057021;28;20026;-45
2024/02/22 00:35:59;;;;;;;6.38;2.78;;;;;;;;;;2056402;28;20011;-47
2024/02/22 00:37:01;;;;;;;3.20;2.22;;;;;;;;;;2056532;28;20081;-46
2024/02/22 00:38:02;;;;;;;3.95;2.70;;;;;;;;;;2057023;28;20035;-46
2024/02/22 00:39:03;;;;;;;4.32;2.53;;;;;;;;;;2056815;28;20486;-46
2024/02/22 00:40:05;;;;;;;3.22;2.58;;;;;;;;;;2056786;28;20794;-45
2024/02/22 00:41:07;;;;;;;5.53;2.42;;;;;;;;;;2056598;28;20042;-46
2024/02/22 00:42:08;;;;;;;3.95;2.63;;;;;;;;;;2057268;28;20065;-46
2024/02/22 00:43:10;;;;;;;5.10;2.55;;;;;;;;;;2056919;28;20018;-46
2024/02/22 00:44:11;;;;;;;6.57;2.67;;;;;;;;;;2050391;28;20019;-48
2024/02/22 00:45:15;;;;;;;6.72;3.00;;;;;;;;;;2050219;28;20019;-48
2024/02/22 00:46:16;;;;;;;6.13;3.17;;;;;;;;;;2056697;28;20402;-49
2024/02/22 00:47:17;;;;;;;5.38;2.97;;;;;;;;;;2056454;28;20034;-47
2024/02/22 00:48:19;;;;;;;6.85;2.75;;;;;;;;;;2056547;28;20027;-47
2024/02/22 00:49:20;;;;;;;4.75;2.83;;;;;;;;;;2056046;28;20027;-49
2024/02/22 00:50:21;;;;;;;4.38;2.53;;;;;;;;;;2055954;28;20025;-48
2024/02/22 00:51:23;;;;;;;5.68;3.25;;;;;;;;;;2057551;28;20394;-48
2024/02/22 00:52:24;;;;;;;4.47;2.70;;;;;;;;;;2054917;28;20011;-49
2024/02/22 00:53:25;;;;;;;5.28;3.17;;;;;;;;;;2056634;28;20026;-49
2024/02/22 00:54:26;;;;;;;5.20;2.90;;;;;;;;;;2056729;28;20497;-49
2024/02/22 00:55:28;;;;;;;4.88;2.80;;;;;;;;;;2056470;28;20019;-47
2024/02/22 00:56:29;;;;;;;4.80;2.78;;;;;;;;;;2056484;28;20077;-48
2024/02/22 00:57:30;;;;;;;5.30;2.58;;;;;;;;;;2056673;28;20459;-49
2024/02/22 00:58:31;;;;;;;4.28;2.60;;;;;;;;;;2056561;28;20459;-50
2024/02/22 00:59:33;;;;;;;5.32;2.65;;;;;;;;;;2056576;28;20039;-50
2024/02/22 01:00:35;;;;;;;4.15;2.97;;;;;;;;;;2048007;28;20059;-51
2024/02/22 01:01:36;;;;;;;4.32;2.90;;;;;;;;;;2052269;28;20011;-49
2024/02/22 01:02:38;;;;;;;3.78;2.42;;;;;;;;;;2056073;28;20031;-47
2024/02/22 01:03:39;;;;;;;4.40;2.83;;;;;;;;;;2056522;28;20019;-49
2024/02/22 01:04:40;;;;;;;6.13;2.83;;;;;;;;;;2056369;28;20031;-49
2024/02/22 01:05:42;;;;;;;4.07;2.53;;;;;;;;;;2055558;28;20121;-48
2024/02/22 01:06:43;;;;;;;4.80;2.25;;;;;;;;;;2056409;28;20023;-47
2024/02/22 01:07:45;;;;;;;3.50;2.45;;;;;;;;;;2056741;28;20038;-48
2024/02/22 01:08:46;;;;;;;5.63;2.60;;;;;;;;;;2056277;28;20019;-48
2024/02/22 01:09:48;;;;;;;4.72;2.53;;;;;;;;;;2056486;28;20007;-47
2024/02/22 01:10:49;;;;;;;3.47;2.38;;;;;;;;;;2056569;28;20027;-49
2024/02/22 01:11:51;;;;;;;6.65;2.58;;;;;;;;;;2056271;28;20022;-48
2024/02/22 01:12:52;;;;;;;6.60;2.97;;;;;;;;;;2056506;28;20027;-49
2024/02/22 01:13:54;;;;;;;4.50;2.38;;;;;;;;;;2056573;28;20022;-49
2024/02/22 01:14:55;;;;;;;3.17;2.00;;;;;;;;;;2053472;28;20041;-48
2024/02/22 01:15:56;;;;;;;2.80;2.08;;;;;;;;;;2063074;28;20093;-49
2024/02/22 01:16:58;;;;;;;3.40;2.22;;;;;;;;;;2056716;28;20736;-48
2024/02/22 01:17:59;;;;;;;2.95;2.42;;;;;;;;;;2056539;28;20070;-49
2024/02/22 01:19:00;;;;;;;4.82;2.83;;;;;;;;;;2056800;28;20030;-50
2024/02/22 01:20:04;;;;;;;4.05;2.45;;;;;;;;;;2056181;28;20015;-49
2024/02/22 01:21:06;;;;;;;5.68;2.35;;;;;;;;;;2056106;28;20495;-49
2024/02/22 01:22:08;;;;;;;5.38;2.35;;;;;;;;;;2056802;28;20027;-45
2024/02/22 01:23:09;;;;;;;3.92;2.17;;;;;;;;;;2056868;28;20019;-47
2024/02/22 01:24:11;;;;;;;3.35;2.17;;;;;;;;;;2056707;28;20026;-45
2024/02/22 01:25:12;;;;;;;4.55;2.15;;;;;;;;;;2058412;28;20034;-45
2024/02/22 01:26:15;;;;;;;3.17;2.20;;;;;;;;;;2059039;28;20101;-45
2024/02/22 01:27:16;;;;;;;4.35;2.40;;;;;;;;;;2055559;28;20027;-55
2024/02/22 01:28:18;;;;;;;3.60;2.40;;;;;;;;;;2057238;28;20489;-54
2024/02/22 01:29:19;;;;;;;4.28;2.40;;;;;;;;;;2056111;28;20355;-46
2024/02/22 01:30:21;;;;;;;3.70;2.42;;;;;;;;;;2056175;28;20335;-46
2024/02/22 01:31:22;;;;;;;3.97;2.58;;;;;;;;;;2055900;28;20019;-45
2024/02/22 01:32:23;;;;;;;4.05;2.47;;;;;;;;;;2055950;28;20106;-45
2024/02/22 01:33:24;;;;;;;3.92;2.15;;;;;;;;;;2056135;28;20015;-46
2024/02/22 01:34:26;;;;;;;4.28;2.60;;;;;;;;;;2056371;28;20038;-49
2024/02/22 01:35:27;;;;;;;5.32;2.33;;;;;;;;;;2056278;28;20025;-50
2024/02/22 01:36:28;;;;;;;2.92;2.00;;;;;;;;;;2056652;28;20100;-48
2024/02/22 01:37:29;;;;;;;4.43;2.53;;;;;;;;;;2053738;28;20041;-49
2024/02/22 01:38:31;;;;;;;4.55;2.30;;;;;;;;;;2056454;28;20023;-48
2024/02/22 01:39:32;;;;;;;3.45;2.50;;;;;;;;;;2056422;28;20019;-48
2024/02/22 01:40:33;;;;;;;5.22;2.90;;;;;;;;;;2058018;28;20483;-48
2024/02/22 01:41:34;;;;;;;4.75;2.30;;;;;;;;;;2060242;28;20019;-50
2024/02/22 01:42:36;;;;;;;3.95;2.17;;;;;;;;;;2055743;28;20457;-48
2024/02/22 01:43:37;;;;;;;4.15;2.38;;;;;;;;;;2056271;28;20015;-48
2024/02/22 01:44:39;;;;;;;5.15;2.60;;;;;;;;;;2056453;28;20030;-49
2024/02/22 01:45:40;;;;;;;5.45;2.33;;;;;;;;;;2055710;28;20015;-48
2024/02/22 01:46:41;;;;;;;3.47;2.28;;;;;;;;;;2055608;28;20023;-48
2024/02/22 01:47:43;;;;;;;5.63;2.65;;;;;;;;;;2056666;28;20093;-50
2024/02/22 01:48:44;;;;;;;4.70;2.70;;;;;;;;;;2056275;28;20035;-49
2024/02/22 01:49:46;;;;;;;3.90;2.80;;;;;;;;;;2056403;28;20015;-49
2024/02/22 01:50:52;;;;;;;4.88;2.47;;;;;;;;;;2057581;28;20027;-49
2024/02/22 01:52:00;;;;;;;4.28;2.47;;;;;;;;;;2056749;28;20027;-47
2024/02/22 01:53:01;;;;;;;4.72;2.83;;;;;;;;;;2056445;28;20478;-48
2024/02/22 01:54:03;;;;;;;5.75;2.78;;;;;;;;;;2056359;28;21015;-50
2024/02/22 01:55:08;;;;;;;6.57;3.20;;;;;;;;;;2051052;28;20089;-49
2024/02/22 01:56:10;;;;;;;5.13;2.80;;;;;;;;;;2052709;28;20105;-49
2024/02/22 01:57:11;;;;;;;5.25;3.10;;;;;;;;;;2051127;28;20073;-49
2024/02/22 01:58:13;;;;;;;5.05;2.85;;;;;;;;;;2056894;28;20026;-46
2024/02/22 01:59:15;;;;;;;4.30;2.42;;;;;;;;;;2057450;28;20042;-57
2024/02/22 02:00:17;;;;;;;3.83;2.60;;;;;;;;;;2057195;28;20030;-53
2024/02/22 02:01:22;;;;;;;4.35;2.40;;;;;;;;;;2051168;28;20057;-53
2024/02/22 02:02:24;;;;;;;4.78;2.47;;;;;;;;;;2055098;28;20039;-56
2024/02/22 02:03:29;;;;;;;4.28;2.63;;;;;;;;;;2053713;28;20142;-55
2024/02/22 02:04:30;;;;;;;5.72;2.65;;;;;;;;;;2057520;28;20521;-56
2024/02/22 02:05:31;;;;;;;3.17;2.33;;;;;;;;;;2064580;28;20097;-48
2024/02/22 02:06:33;;;;;;;6.95;2.70;;;;;;;;;;2069087;28;20031;-54
2024/02/22 02:07:37;;;;;;;3.95;2.72;;;;;;;;;;2057192;28;20410;-55
2024/02/22 02:08:39;;;;;;;5.63;2.70;;;;;;;;;;2057183;28;20058;-54
2024/02/22 02:09:40;;;;;;;4.80;2.47;;;;;;;;;;2057530;28;20019;-54
2024/02/22 02:10:41;;;;;;;4.43;2.40;;;;;;;;;;2057859;28;20544;-55
2024/02/22 02:11:44;;;;;;;4.57;2.95;;;;;;;;;;2057849;28;20140;-54
2024/02/22 02:12:45;;;;;;;3.10;2.28;;;;;;;;;;2057279;28;20077;-50
2024/02/22 02:13:46;;;;;;;6.07;2.65;;;;;;;;;;2057763;28;20031;-48
2024/02/22 02:14:48;;;;;;;5.20;2.60;;;;;;;;;;2057730;28;20022;-49
2024/02/22 02:15:50;;;;;;;4.38;2.63;;;;;;;;;;2056905;28;20019;-48
2024/02/22 02:16:51;;;;;;;4.90;2.97;;;;;;;;;;2056674;28;20458;-49
2024/02/22 02:17:52;;;;;;;4.43;2.28;;;;;;;;;;2057107;28;20026;-50
2024/02/22 02:18:54;;;;;;;4.15;2.53;;;;;;;;;;2056925;28;20506;-49
2024/02/22 02:19:56;;;;;;;7.15;3.13;;;;;;;;;;2057817;28;20018;-49
2024/02/22 02:21:05;;;;;;;4.05;2.72;;;;;;;;;;2053267;28;20035;-49
2024/02/22 02:22:08;;;;;;;5.75;2.55;;;;;;;;;;2057720;28;20110;-49
2024/02/22 02:23:28;;;;;;;3.53;2.40;;;;;;;;;;2057612;28;20565;-55
2024/02/22 02:24:47;;;;;;;4.32;2.63;;;;;;;;;;2057558;28;20430;-54
2024/02/22 02:25:49;;;;;;;3.67;2.38;;;;;;;;;;2057419;28;20026;-55
2024/02/22 02:26:51;;;;;;;5.03;2.55;;;;;;;;;;2057626;28;20494;-55
2024/02/22 02:27:52;;;;;;;6.30;2.58;;;;;;;;;;2057737;28;20019;-45
2024/02/22 02:28:53;;;;;;;6.35;2.78;;;;;;;;;;2058339;28;20605;-48
2024/02/22 02:29:55;;;;;;;5.25;2.78;;;;;;;;;;2049397;29;20031;-46
2024/02/22 02:30:56;;;;;;;4.88;2.55;;;;;;;;;;2057861;28;20429;-46
2024/02/22 02:31:57;;;;;;;4.32;2.30;;;;;;;;;;2064314;28;20037;-45
2024/02/22 02:32:59;;;;;;;4.05;2.55;;;;;;;;;;2056810;28;20023;-46
2024/02/22 02:34:00;;;;;;;4.13;2.70;;;;;;;;;;2053477;28;20031;-47
2024/02/22 02:35:01;;;;;;;4.15;2.20;;;;;;;;;;2050105;28;20031;-46
2024/02/22 02:36:03;;;;;;;3.65;2.28;;;;;;;;;;2057369;28;20039;-46
2024/02/22 02:37:04;;;;;;;2.95;2.00;;;;;;;;;;2057287;28;20027;-46
2024/02/22 02:38:10;;;;;;;3.83;2.40;;;;;;;;;;2057802;28;20023;-47
2024/02/22 02:39:12;;;;;;;3.58;2.03;;;;;;;;;;2052413;28;20031;-45
2024/02/22 02:40:13;;;;;;;3.70;2.13;;;;;;;;;;2049711;29;20045;-46
2024/02/22 02:41:16;;;;;;;4.22;2.15;;;;;;;;;;2049042;29;20382;-48
2024/02/22 02:42:18;;;;;;;3.80;2.40;;;;;;;;;;2054947;28;20045;-47
2024/02/22 02:43:19;;;;;;;3.28;2.20;;;;;;;;;;2057470;28;20054;-49
2024/02/22 02:44:20;;;;;;;3.35;1.90;;;;;;;;;;2057524;28;20334;-55
2024/02/22 02:45:21;;;;;;;3.78;2.50;;;;;;;;;;2057227;28;20470;-56
2024/02/22 02:46:23;;;;;;;3.97;2.20;;;;;;;;;;2057630;28;20019;-55
2024/02/22 02:47:24;;;;;;;5.82;2.38;;;;;;;;;;2054793;28;20577;-55
2024/02/22 02:48:25;;;;;;;6.25;2.38;;;;;;;;;;2057534;28;20521;-53
2024/02/22 02:49:26;;;;;;;3.20;2.03;;;;;;;;;;2056857;28;20027;-55
2024/02/22 02:50:28;;;;;;;2.53;2.00;;;;;;;;;;2057430;28;20011;-56
2024/02/22 02:51:30;;;;;;;4.70;2.20;;;;;;;;;;2057150;28;20339;-55
2024/02/22 02:52:31;;;;;;;2.78;1.95;;;;;;;;;;2056704;28;20027;-54
2024/02/22 02:53:32;;;;;;;3.47;2.30;;;;;;;;;;2058630;28;20343;-55
2024/02/22 02:54:33;;;;;;;7.22;2.72;;;;;;;;;;2064388;28;20034;-53
2024/02/22 02:55:34;;;;;;;3.20;2.35;;;;;;;;;;2055153;28;20042;-55
2024/02/22 02:56:36;;;;;;;6.15;3.20;;;;;;;;;;2056386;28;20122;-54
2024/02/22 02:57:37;;;;;;;5.72;3.50;;;;;;;;;;2057464;28;20107;-55
2024/02/22 02:58:38;;;;;;;4.43;2.55;;;;;;;;;;2057652;28;20056;-53
2024/02/22 02:59:39;;;;;;;5.32;2.80;;;;;;;;;;2057441;28;20025;-55
2024/02/22 03:00:41;;;;;;;5.75;2.92;;;;;;;;;;2057362;28;20034;-55
2024/02/22 03:01:48;;;;;;;4.03;2.60;;;;;;;;;;2057319;28;20022;-57
2024/02/22 03:02:50;;;;;;;3.13;2.38;;;;;;;;;;2055217;28;20097;-48
2024/02/22 03:03:51;;;;;;;3.90;2.40;;;;;;;;;;2056510;28;20027;-48
2024/02/22 03:04:52;;;;;;;4.15;1.98;;;;;;;;;;2057339;28;20019;-49
2024/02/22 03:05:53;;;;;;;4.30;2.58;;;;;;;;;;2056491;28;20022;-48
2024/02/22 03:06:55;;;;;;;4.65;2.20;;;;;;;;;;2056446;28;20053;-48
2024/02/22 03:07:56;;;;;;;5.55;2.97;;;;;;;;;;2050443;28;20043;-48
2024/02/22 03:08:57;;;;;;;3.60;2.30;;;;;;;;;;2057691;28;20019;-48
2024/02/22 03:09:59;;;;;;;4.53;2.40;;;;;;;;;;2056816;28;20029;-49
2024/02/22 03:11:02;;;;;;;4.32;2.33;;;;;;;;;;2065225;28;20029;-49
2024/02/22 03:12:04;;;;;;;5.65;2.58;;;;;;;;;;2072977;28;20045;-50
2024/02/22 03:13:08;;;;;;;5.50;2.08;;;;;;;;;;2057950;28;20030;-49
2024/02/22 03:14:10;;;;;;;5.18;2.88;;;;;;;;;;2057763;28;20405;-50
2024/02/22 03:15:11;;;;;;;5.50;2.65;;;;;;;;;;2057443;28;20027;-49
2024/02/22 03:16:12;;;;;;;4.28;2.65;;;;;;;;;;2056998;28;20405;-48
2024/02/22 03:17:14;;;;;;;3.95;2.13;;;;;;;;;;2057478;28;20105;-54
2024/02/22 03:18:15;;;;;;;8.32;2.65;;;;;;;;;;2057081;28;20508;-53
2024/02/22 03:19:16;;;;;;;4.10;2.40;;;;;;;;;;2056930;28;20553;-54
2024/02/22 03:20:18;;;;;;;3.15;2.28;;;;;;;;;;2057433;28;20035;-52
2024/02/22 03:21:22;;;;;;;3.17;2.50;;;;;;;;;;2057186;28;20130;-52
2024/02/22 03:22:24;;;;;;;3.63;2.80;;;;;;;;;;2057498;28;20508;-55
2024/02/22 03:23:25;;;;;;;4.03;2.40;;;;;;;;;;2057137;28;20045;-55
2024/02/22 03:24:26;;;;;;;3.58;2.33;;;;;;;;;;2057612;28;20029;-54
2024/02/22 03:25:27;;;;;;;6.28;2.80;;;;;;;;;;2061407;28;20022;-53
2024/02/22 03:26:29;;;;;;;4.68;2.75;;;;;;;;;;2057893;28;20510;-55
2024/02/22 03:27:32;;;;;;;4.65;2.42;;;;;;;;;;2056541;28;20494;-55
2024/02/22 03:28:33;;;;;;;4.88;2.83;;;;;;;;;;2057443;28;20058;-55
2024/02/22 03:29:34;;;;;;;4.03;2.53;;;;;;;;;;2057125;28;20019;-55
2024/02/22 03:30:36;;;;;;;4.88;2.72;;;;;;;;;;2056951;28;20023;-54
2024/02/22 03:31:37;;;;;;;3.63;2.38;;;;;;;;;;2057097;28;20038;-56
2024/02/22 03:32:38;;;;;;;4.15;2.55;;;;;;;;;;2056920;28;20131;-55
2024/02/22 03:33:41;;;;;;;3.38;2.40;;;;;;;;;;2057228;28;20022;-50
2024/02/22 03:34:42;;;;;;;6.35;2.50;;;;;;;;;;2057160;28;20058;-48
2024/02/22 03:35:43;;;;;;;3.00;2.03;;;;;;;;;;2050605;28;20022;-48
2024/02/22 03:36:46;;;;;;;4.20;2.78;;;;;;;;;;2056298;28;20113;-50
2024/02/22 03:37:47;;;;;;;4.57;2.60;;;;;;;;;;2056208;28;20030;-48
2024/02/22 03:38:48;;;;;;;3.85;2.67;;;;;;;;;;2056456;28;20518;-48
2024/02/22 03:39:50;;;;;;;3.28;2.33;;;;;;;;;;2056945;28;20022;-50
2024/02/22 03:40:53;;;;;;;4.55;2.97;;;;;;;;;;2056644;28;20101;-50
2024/02/22 03:41:55;;;;;;;4.30;2.28;;;;;;;;;;2056932;28;20012;-49
2024/02/22 03:42:57;;;;;;;5.95;2.47;;;;;;;;;;2057065;28;20015;-49
2024/02/22 03:43:59;;;;;;;3.58;2.20;;;;;;;;;;2056855;28;20026;-47
2024/02/22 03:45:01;;;;;;;4.30;2.75;;;;;;;;;;2056149;28;20089;-50
2024/02/22 03:46:02;;;;;;;4.75;2.80;;;;;;;;;;2056243;28;20027;-49
2024/02/22 03:47:04;;;;;;;3.70;2.30;;;;;;;;;;2056705;28;20062;-54
2024/02/22 03:48:05;;;;;;;4.10;2.60;;;;;;;;;;2056744;28;20027;-61
2024/02/22 03:49:07;;;;;;;4.47;2.33;;;;;;;;;;2056974;28;20022;-54
2024/02/22 03:50:08;;;;;;;4.00;2.72;;;;;;;;;;2054624;28;20518;-55
2024/02/22 03:51:10;;;;;;;5.43;2.42;;;;;;;;;;2052508;28;20569;-54
2024/02/22 03:52:13;;;;;;;4.18;2.53;;;;;;;;;;2048493;28;20050;-53
2024/02/22 03:53:15;;;;;;;3.97;2.45;;;;;;;;;;2053730;28;20105;-55
2024/02/22 03:54:16;;;;;;;3.47;2.30;;;;;;;;;;2057064;28;20528;-56
2024/02/22 03:55:18;;;;;;;3.60;2.50;;;;;;;;;;2056194;28;20038;-55
2024/02/22 03:56:19;;;;;;;4.13;2.63;;;;;;;;;;2057260;28;20102;-55
2024/02/22 03:57:20;;;;;;;4.20;2.60;;;;;;;;;;2056293;28;20387;-52
2024/02/22 03:58:22;;;;;;;3.22;2.20;;;;;;;;;;2048224;28;20114;-51
2024/02/22 03:59:23;;;;;;;5.32;2.60;;;;;;;;;;2056283;28;20035;-56
2024/02/22 04:00:25;;;;;;;4.35;2.78;;;;;;;;;;2056782;28;20019;-49
2024/02/22 04:01:26;;;;;;;3.70;2.50;;;;;;;;;;2056576;28;20023;-49
2024/02/22 04:02:27;;;;;;;3.92;2.75;;;;;;;;;;2056559;28;20515;-50
2024/02/22 04:03:31;;;;;;;4.60;2.65;;;;;;;;;;2056681;28;20090;-49
2024/02/22 04:04:32;;;;;;;5.55;2.67;;;;;;;;;;2055797;28;20514;-49
2024/02/22 04:05:34;;;;;;;6.50;2.63;;;;;;;;;;2057066;28;20153;-50
2024/02/22 04:06:35;;;;;;;3.78;2.70;;;;;;;;;;2056468;28;20007;-49
2024/02/22 04:07:37;;;;;;;3.45;2.58;;;;;;;;;;2056738;28;20026;-50
2024/02/22 04:08:38;;;;;;;3.70;2.72;;;;;;;;;;2056905;28;20030;-48
2024/02/22 04:09:40;;;;;;;4.78;2.95;;;;;;;;;;2056785;28;20014;-50
2024/02/22 04:10:41;;;;;;;4.18;2.95;;;;;;;;;;2056747;28;20034;-48
2024/02/22 04:11:42;;;;;;;4.13;2.50;;;;;;;;;;2056053;28;20039;-50
2024/02/22 04:12:44;;;;;;;5.00;2.63;;;;;;;;;;2056242;28;20497;-48
2024/02/22 04:13:45;;;;;;;4.78;2.55;;;;;;;;;;2056828;28;20493;-49
2024/02/22 04:14:46;;;;;;;4.68;2.65;;;;;;;;;;2056824;28;20101;-50
2024/02/22 04:15:49;;;;;;;4.10;2.80;;;;;;;;;;2056744;28;20051;-48
2024/02/22 04:16:50;;;;;;;5.35;2.28;;;;;;;;;;2056416;28;20477;-50
2024/02/22 04:17:51;;;;;;;2.83;2.40;;;;;;;;;;2056862;28;20050;-49
2024/02/22 04:18:52;;;;;;;5.20;2.65;;;;;;;;;;2048822;28;20058;-50
2024/02/22 04:19:54;;;;;;;4.28;2.50;;;;;;;;;;2051242;28;20142;-50
2024/02/22 04:20:55;;;;;;;6.00;2.75;;;;;;;;;;2064172;28;20041;-50
2024/02/22 04:21:56;;;;;;;4.90;2.40;;;;;;;;;;2063771;28;20101;-49
2024/02/22 04:22:58;;;;;;;5.30;2.40;;;;;;;;;;2056605;28;20015;-49
2024/02/22 04:23:59;;;;;;;4.07;3.00;;;;;;;;;;2055999;28;20093;-48
2024/02/22 04:25:00;;;;;;;3.70;2.55;;;;;;;;;;2055731;28;20030;-49
2024/02/22 04:26:02;;;;;;;3.28;2.45;;;;;;;;;;2048915;28;20094;-49
2024/02/22 04:27:03;;;;;;;5.43;3.20;;;;;;;;;;2056529;28;20026;-54
2024/02/22 04:28:05;;;;;;;5.28;2.78;;;;;;;;;;2056413;28;20031;-49
2024/02/22 04:29:06;;;;;;;3.22;2.60;;;;;;;;;;2056989;28;20050;-46
2024/02/22 04:30:07;;;;;;;4.70;2.63;;;;;;;;;;2056595;28;20019;-46
2024/02/22 04:31:09;;;;;;;3.83;2.60;;;;;;;;;;2056794;28;20054;-44
2024/02/22 04:32:10;;;;;;;3.67;2.47;;;;;;;;;;2056815;28;20556;-46
2024/02/22 04:33:15;;;;;;;4.50;3.13;;;;;;;;;;2055996;28;20481;-47
2024/02/22 04:34:16;;;;;;;3.38;2.53;;;;;;;;;;2056115;28;20037;-46
2024/02/22 04:35:18;;;;;;;4.28;2.63;;;;;;;;;;2056856;28;20019;-46
2024/02/22 04:36:19;;;;;;;4.45;2.90;;;;;;;;;;2056416;28;20017;-47
2024/02/22 04:37:20;;;;;;;6.45;2.67;;;;;;;;;;2048834;29;20027;-46
2024/02/22 04:38:22;;;;;;;5.28;3.13;;;;;;;;;;2056834;28;20017;-47
2024/02/22 04:39:23;;;;;;;4.57;2.85;;;;;;;;;;2057807;28;20038;-46
2024/02/22 04:40:24;;;;;;;3.60;2.90;;;;;;;;;;2057629;28;20113;-50
2024/02/22 04:41:26;;;;;;;4.70;3.05;;;;;;;;;;2055854;28;20154;-49
2024/02/22 04:42:28;;;;;;;4.78;2.67;;;;;;;;;;2055918;28;20030;-49
2024/02/22 04:43:29;;;;;;;6.47;2.90;;;;;;;;;;2056766;28;20018;-46
2024/02/22 04:44:30;;;;;;;4.32;2.85;;;;;;;;;;2055980;28;20018;-46
2024/02/22 04:45:33;;;;;;;3.33;2.25;;;;;;;;;;2056636;28;20026;-47
2024/02/22 04:46:37;;;;;;;3.97;3.05;;;;;;;;;;2056625;28;20482;-46
2024/02/22 04:47:38;;;;;;;5.97;2.80;;;;;;;;;;2055381;28;20098;-46
2024/02/22 04:48:39;;;;;;;3.83;2.55;;;;;;;;;;2048817;29;20105;-46
2024/02/22 04:49:41;;;;;;;5.45;2.67;;;;;;;;;;2055843;28;20019;-45
2024/02/22 04:50:42;;;;;;;2.95;2.55;;;;;;;;;;2056521;28;20121;-48
2024/02/22 04:51:43;;;;;;;5.20;2.92;;;;;;;;;;2056954;28;20030;-47
2024/02/22 04:52:45;;;;;;;4.22;3.13;;;;;;;;;;2056769;28;20026;-47
2024/02/22 04:53:46;;;;;;;5.13;3.03;;;;;;;;;;2055680;28;20640;-54
2024/02/22 04:54:47;;;;;;;4.82;2.90;;;;;;;;;;2062862;28;20038;-56
2024/02/22 04:55:48;;;;;;;6.07;3.50;;;;;;;;;;2058726;28;20081;-52
2024/02/22 04:56:50;;;;;;;7.32;3.10;;;;;;;;;;2056617;28;20081;-54
2024/02/22 04:57:51;;;;;;;4.93;2.78;;;;;;;;;;2056462;28;20465;-49
2024/02/22 04:58:53;;;;;;;6.25;2.92;;;;;;;;;;2057269;28;20034;-49
2024/02/22 04:59:54;;;;;;;4.30;2.95;;;;;;;;;;2056729;28;20033;-48
2024/02/22 05:00:56;;;;;;;4.85;2.88;;;;;;;;;;2056374;28;20034;-50
2024/02/22 05:01:58;;;;;;;5.38;3.13;;;;;;;;;;2056398;28;20034;-48
2024/02/22 05:02:59;;;;;;;4.78;3.08;;;;;;;;;;2060500;28;20018;-50
2024/02/22 05:04:00;;;;;;;7.30;3.17;;;;;;;;;;2052744;28;20023;-50
2024/02/22 05:05:03;;;;;;;6.22;2.83;;;;;;;;;;2061658;28;20478;-49
2024/02/22 05:06:05;;;;;;;7.57;3.30;;;;;;;;;;2056635;28;20019;-53
2024/02/22 05:07:06;;;;;;;4.88;3.20;;;;;;;;;;2055951;28;20014;-56
2024/02/22 05:08:09;;;;;;;4.13;3.03;;;;;;;;;;2056660;28;20058;-55
2024/02/22 05:09:13;;;;;;;5.68;3.50;;;;;;;;;;2056513;28;20042;-55
2024/02/22 05:10:15;;;;;;;5.40;3.03;;;;;;;;;;2056638;28;20033;-48
2024/02/22 05:11:16;;;;;;;5.47;2.90;;;;;;;;;;2056749;28;20522;-53
2024/02/22 05:12:17;;;;;;;6.80;3.60;;;;;;;;;;2057391;28;20571;-55
2024/02/22 05:13:20;;;;;;;5.07;3.30;;;;;;;;;;2058549;28;20022;-55
2024/02/22 05:14:21;;;;;;;5.28;3.38;;;;;;;;;;2056603;28;20038;-51
2024/02/22 05:15:22;;;;;;;5.97;3.60;;;;;;;;;;2056448;28;20427;-45
2024/02/22 05:16:24;;;;;;;7.10;3.53;;;;;;;;;;2063801;28;20023;-47
2024/02/22 05:17:25;;;;;;;6.38;3.80;;;;;;;;;;2056125;28;20019;-49
2024/02/22 05:18:27;;;;;;;6.97;4.18;;;;;;;;;;2056251;28;20185;-47
2024/02/22 05:19:28;;;;;;;6.18;4.20;;;;;;;;;;2056403;28;20046;-46
2024/02/22 05:20:29;;;;;;;6.38;3.92;;;;;;;;;;2056137;28;20501;-47
2024/02/22 05:21:31;;;;;;;6.05;3.83;;;;;;;;;;2056900;28;20022;-45
2024/02/22 05:22:33;;;;;;;7.38;4.22;;;;;;;;;;2057151;28;20015;-46
2024/02/22 05:23:34;;;;;;;6.43;3.40;;;;;;;;;;2056880;28;20465;-47
2024/02/22 05:24:35;;;;;;;9.00;3.50;;;;;;;;;;2056971;28;20019;-47
2024/02/22 05:25:38;;;;;;;5.13;3.00;;;;;;;;;;2056281;28;20124;-47
2024/02/22 05:26:39;;;;;;;5.90;3.58;;;;;;;;;;2042790;29;20068;-47
2024/02/22 05:27:41;;;;;;;4.82;3.60;;;;;;;;;;2048272;28;20023;-47
2024/02/22 05:28:42;;;;;;;5.93;3.25;;;;;;;;;;2063991;28;20061;-47
2024/02/22 05:29:43;;;;;;;6.35;4.00;;;;;;;;;;2053173;28;20074;-47
2024/02/22 05:30:44;;;;;;;5.88;3.05;;;;;;;;;;2048793;28;20193;-47
2024/02/22 05:31:46;;;;;;;5.93;3.45;;;;;;;;;;2057147;28;20041;-46
2024/02/22 05:32:47;;;;;;;4.55;3.30;;;;;;;;;;2058067;28;20030;-46
2024/02/22 05:33:48;;;;;;;4.82;3.25;;;;;;;;;;2058286;28;20110;-46
2024/02/22 05:34:49;;;;;;;7.00;3.63;;;;;;;;;;2057517;28;20078;-46
2024/02/22 05:35:51;;;;;;;5.38;3.58;;;;;;;;;;2057591;28;20037;-45
2024/02/22 05:36:52;;;;;;;6.47;3.13;;;;;;;;;;2058296;28;20021;-47
2024/02/22 05:37:53;;;;;;;6.18;3.58;;;;;;;;;;2054126;28;20031;-45
2024/02/22 05:38:55;;;;;;;7.43;3.65;;;;;;;;;;2050016;29;20514;-45
2024/02/22 05:39:56;;;;;;;6.13;3.80;;;;;;;;;;2058917;28;20030;-46
2024/02/22 05:40:57;;;;;;;7.65;4.07;;;;;;;;;;2062448;28;20045;-46
2024/02/22 05:41:59;;;;;;;6.60;4.00;;;;;;;;;;2049947;29;20023;-49
2024/02/22 05:43:00;;;;;;;6.85;3.45;;;;;;;;;;2055832;28;20011;-46
2024/02/22 05:44:02;;;;;;;11.82;4.28;;;;;;;;;;2050797;28;20082;-46
2024/02/22 05:45:04;;;;;;;7.72;4.00;;;;;;;;;;2057565;28;20095;-46
2024/02/22 05:46:05;;;;;;;8.73;4.38;;;;;;;;;;2064854;28;20390;-45
2024/02/22 05:47:07;;;;;;;6.75;4.07;;;;;;;;;;2065736;28;20549;-47
2024/02/22 05:48:09;;;;;;;7.05;3.40;;;;;;;;;;2065486;28;20023;-46
2024/02/22 05:49:10;;;;;;;9.27;5.13;;;;;;;;;;2050301;28;20022;-46
2024/02/22 05:50:11;;;;;;;11.02;4.45;;;;;;;;;;2049554;29;20028;-45
2024/02/22 05:51:13;;;;;;;8.90;4.35;;;;;;;;;;2056249;28;20027;-47
2024/02/22 05:52:14;;;;;;;5.43;3.90;;;;;;;;;;2057829;28;20027;-48
2024/02/22 05:53:15;;;;;;;7.28;4.32;;;;;;;;;;2057996;28;20066;-48
2024/02/22 05:54:17;;;;;;;10.30;4.47;;;;;;;;;;2062569;28;20079;-48
2024/02/22 05:55:18;;;;;;;7.28;4.45;;;;;;;;;;2058082;28;20038;-49
2024/02/22 05:56:20;;;;;;;5.63;3.65;;;;;;;;;;2058097;28;20034;-49
2024/02/22 05:57:21;;;;;;;7.05;4.43;;;;;;;;;;2059858;28;20034;-49
2024/02/22 05:58:23;;;;;;;6.32;4.32;;;;;;;;;;2063445;28;20026;-48
2024/02/22 05:59:24;;;;;;;6.93;4.13;;;;;;;;;;2057583;28;20019;-48
2024/02/22 06:00:25;;;;;;;9.32;4.63;;;;;;;;;;2057869;28;20054;-50
2024/02/22 06:01:26;;;;;;;7.85;4.47;;;;;;;;;;2057925;28;20022;-49
2024/02/22 06:02:28;;;;;;;10.18;4.55;;;;;;;;;;2057696;28;20026;-48
2024/02/22 06:03:29;;;;;;;7.10;4.50;;;;;;;;;;2054030;28;20521;-49
2024/02/22 06:04:31;;;;;;;7.38;4.18;;;;;;;;;;2057936;28;20027;-47
2024/02/22 06:05:32;;;;;;;9.95;4.53;;;;;;;;;;2057641;28;20007;-50
2024/02/22 06:06:33;;;;;;;7.47;5.10;;;;;;;;;;2063824;28;20049;-48
2024/02/22 06:07:34;;;;;;;5.88;3.55;;;;;;;;;;2057296;28;20026;-48
2024/02/22 06:08:36;;;;;;;7.25;4.35;;;;;;;;;;2057149;28;20011;-49
2024/02/22 06:09:37;;;;;;;5.97;4.32;;;;;;;;;;2057899;28;20026;-49